sensor_id;sensor_type;location;lat;lon;timestamp;P1;durP1;ratioP1;P2;durP2;ratioP2
45402;SDS011;47427;51.976;5.326;2023-04-23T00:02:47;139.77;;;88.05;;
45402;SDS011;47427;51.976;5.326;2023-04-23T00:06:13;162.70;;;94.35;;
45402;SDS011;47427;51.976;5.326;2023-04-23T00:09:37;139.82;;;86.57;;
45402;SDS011;47427;51.976;5.326;2023-04-23T00:13:01;124.00;;;83.32;;
45402;SDS011;47427;51.976;5.326;2023-04-23T00:16:23;150.20;;;93.25;;
45402;SDS011;47427;51.976;5.326;2023-04-23T00:19:46;133.13;;;85.18;;
45402;SDS011;47427;51.976;5.326;2023-04-23T00:23:09;136.68;;;87.63;;
45402;SDS011;47427;51.976;5.326;2023-04-23T00:26:31;133.95;;;87.95;;
45402;SDS011;47427;51.976;5.326;2023-04-23T00:29:53;129.98;;;86.43;;
45402;SDS011;47427;51.976;5.326;2023-04-23T00:33:16;140.93;;;86.85;;
45402;SDS011;47427;51.976;5.326;2023-04-23T00:36:38;161.63;;;95.28;;
45402;SDS011;47427;51.976;5.326;2023-04-23T00:40:01;137.77;;;86.18;;
45402;SDS011;47427;51.976;5.326;2023-04-23T00:43:24;124.30;;;84.28;;
45402;SDS011;47427;51.976;5.326;2023-04-23T00:46:47;165.38;;;94.45;;
45402;SDS011;47427;51.976;5.326;2023-04-23T00:50:11;143.07;;;89.30;;
45402;SDS011;47427;51.976;5.326;2023-04-23T00:53:34;131.45;;;84.47;;
45402;SDS011;47427;51.976;5.326;2023-04-23T00:56:56;130.45;;;85.68;;
45402;SDS011;47427;51.976;5.326;2023-04-23T01:00:21;133.90;;;83.45;;
45402;SDS011;47427;51.976;5.326;2023-04-23T01:03:42;128.38;;;84.03;;
45402;SDS011;47427;51.976;5.326;2023-04-23T01:07:05;127.13;;;83.25;;
45402;SDS011;47427;51.976;5.326;2023-04-23T01:10:28;120.55;;;81.07;;
45402;SDS011;47427;51.976;5.326;2023-04-23T01:13:52;121.00;;;80.13;;
45402;SDS011;47427;51.976;5.326;2023-04-23T01:17:15;122.80;;;81.50;;
45402;SDS011;47427;51.976;5.326;2023-04-23T01:20:37;125.72;;;81.07;;
45402;SDS011;47427;51.976;5.326;2023-04-23T01:24:01;137.07;;;86.93;;
45402;SDS011;47427;51.976;5.326;2023-04-23T01:27:25;111.87;;;77.40;;
45402;SDS011;47427;51.976;5.326;2023-04-23T01:30:47;119.68;;;78.88;;
45402;SDS011;47427;51.976;5.326;2023-04-23T01:34:10;114.63;;;75.85;;
45402;SDS011;47427;51.976;5.326;2023-04-23T01:37:34;117.40;;;79.47;;
45402;SDS011;47427;51.976;5.326;2023-04-23T01:40:58;123.38;;;80.80;;
45402;SDS011;47427;51.976;5.326;2023-04-23T01:44:20;114.40;;;78.70;;
45402;SDS011;47427;51.976;5.326;2023-04-23T01:47:42;116.85;;;77.80;;
45402;SDS011;47427;51.976;5.326;2023-04-23T01:51:05;116.72;;;77.47;;
45402;SDS011;47427;51.976;5.326;2023-04-23T01:54:28;111.70;;;73.72;;
45402;SDS011;47427;51.976;5.326;2023-04-23T01:57:49;130.35;;;78.70;;
45402;SDS011;47427;51.976;5.326;2023-04-23T02:01:43;108.45;;;75.82;;
45402;SDS011;47427;51.976;5.326;2023-04-23T02:05:10;106.38;;;73.80;;
45402;SDS011;47427;51.976;5.326;2023-04-23T02:08:39;106.80;;;73.93;;
45402;SDS011;47427;51.976;5.326;2023-04-23T02:12:03;111.63;;;75.32;;
45402;SDS011;47427;51.976;5.326;2023-04-23T02:15:25;110.00;;;73.63;;
45402;SDS011;47427;51.976;5.326;2023-04-23T02:18:48;110.05;;;74.43;;
45402;SDS011;47427;51.976;5.326;2023-04-23T02:22:11;106.07;;;72.25;;
45402;SDS011;47427;51.976;5.326;2023-04-23T02:25:32;104.93;;;74.35;;
45402;SDS011;47427;51.976;5.326;2023-04-23T02:28:55;108.47;;;72.10;;
45402;SDS011;47427;51.976;5.326;2023-04-23T02:32:17;107.10;;;72.80;;
45402;SDS011;47427;51.976;5.326;2023-04-23T02:35:39;113.03;;;75.65;;
45402;SDS011;47427;51.976;5.326;2023-04-23T02:39:02;100.72;;;71.53;;
45402;SDS011;47427;51.976;5.326;2023-04-23T02:42:24;102.65;;;70.53;;
45402;SDS011;47427;51.976;5.326;2023-04-23T02:45:47;102.80;;;69.25;;
45402;SDS011;47427;51.976;5.326;2023-04-23T02:49:10;99.63;;;70.03;;
45402;SDS011;47427;51.976;5.326;2023-04-23T02:52:32;98.72;;;69.72;;
45402;SDS011;47427;51.976;5.326;2023-04-23T02:55:55;101.13;;;69.45;;
45402;SDS011;47427;51.976;5.326;2023-04-23T02:59:17;100.68;;;69.35;;
45402;SDS011;47427;51.976;5.326;2023-04-23T03:02:59;97.57;;;67.78;;
45402;SDS011;47427;51.976;5.326;2023-04-23T03:06:20;89.18;;;67.15;;
45402;SDS011;47427;51.976;5.326;2023-04-23T03:09:43;84.57;;;62.35;;
45402;SDS011;47427;51.976;5.326;2023-04-23T03:13:06;83.95;;;62.42;;
45402;SDS011;47427;51.976;5.326;2023-04-23T03:16:29;82.72;;;59.38;;
45402;SDS011;47427;51.976;5.326;2023-04-23T03:19:51;82.90;;;61.03;;
45402;SDS011;47427;51.976;5.326;2023-04-23T03:23:15;73.85;;;56.08;;
45402;SDS011;47427;51.976;5.326;2023-04-23T03:26:37;78.10;;;59.08;;
45402;SDS011;47427;51.976;5.326;2023-04-23T03:30:00;71.80;;;57.08;;
45402;SDS011;47427;51.976;5.326;2023-04-23T03:33:23;72.00;;;57.05;;
45402;SDS011;47427;51.976;5.326;2023-04-23T03:36:44;74.47;;;57.42;;
45402;SDS011;47427;51.976;5.326;2023-04-23T03:40:10;75.45;;;57.60;;
45402;SDS011;47427;51.976;5.326;2023-04-23T03:43:35;72.18;;;54.67;;
45402;SDS011;47427;51.976;5.326;2023-04-23T03:46:56;71.70;;;54.35;;
45402;SDS011;47427;51.976;5.326;2023-04-23T03:50:19;70.22;;;56.42;;
45402;SDS011;47427;51.976;5.326;2023-04-23T03:53:50;73.63;;;57.33;;
45402;SDS011;47427;51.976;5.326;2023-04-23T03:57:25;70.72;;;56.10;;
45402;SDS011;47427;51.976;5.326;2023-04-23T04:01:01;66.83;;;53.30;;
45402;SDS011;47427;51.976;5.326;2023-04-23T04:04:22;71.43;;;55.25;;
45402;SDS011;47427;51.976;5.326;2023-04-23T04:07:45;71.50;;;57.38;;
45402;SDS011;47427;51.976;5.326;2023-04-23T04:11:06;62.78;;;52.97;;
45402;SDS011;47427;51.976;5.326;2023-04-23T04:14:30;69.43;;;54.92;;
45402;SDS011;47427;51.976;5.326;2023-04-23T04:17:53;72.88;;;55.88;;
45402;SDS011;47427;51.976;5.326;2023-04-23T04:21:14;69.60;;;55.58;;
45402;SDS011;47427;51.976;5.326;2023-04-23T04:24:38;61.63;;;53.42;;
45402;SDS011;47427;51.976;5.326;2023-04-23T04:28:02;65.97;;;53.72;;
45402;SDS011;47427;51.976;5.326;2023-04-23T04:31:24;64.90;;;54.15;;
45402;SDS011;47427;51.976;5.326;2023-04-23T04:34:48;69.70;;;54.85;;
45402;SDS011;47427;51.976;5.326;2023-04-23T04:38:10;61.15;;;53.42;;
45402;SDS011;47427;51.976;5.326;2023-04-23T04:41:33;64.93;;;53.42;;
45402;SDS011;47427;51.976;5.326;2023-04-23T04:44:58;60.05;;;52.05;;
45402;SDS011;47427;51.976;5.326;2023-04-23T04:48:20;60.88;;;53.33;;
45402;SDS011;47427;51.976;5.326;2023-04-23T04:51:43;61.03;;;51.95;;
45402;SDS011;47427;51.976;5.326;2023-04-23T04:55:05;61.67;;;51.67;;
45402;SDS011;47427;51.976;5.326;2023-04-23T04:58:27;64.05;;;51.15;;
45402;SDS011;47427;51.976;5.326;2023-04-23T05:01:50;56.47;;;49.92;;
45402;SDS011;47427;51.976;5.326;2023-04-23T05:05:12;55.65;;;49.65;;
45402;SDS011;47427;51.976;5.326;2023-04-23T05:08:34;63.78;;;52.42;;
45402;SDS011;47427;51.976;5.326;2023-04-23T05:11:57;57.55;;;49.80;;
45402;SDS011;47427;51.976;5.326;2023-04-23T05:15:19;55.88;;;49.80;;
45402;SDS011;47427;51.976;5.326;2023-04-23T05:18:42;60.65;;;51.15;;
45402;SDS011;47427;51.976;5.326;2023-04-23T05:22:04;54.03;;;48.35;;
45402;SDS011;47427;51.976;5.326;2023-04-23T05:25:26;55.67;;;49.20;;
45402;SDS011;47427;51.976;5.326;2023-04-23T05:28:50;55.30;;;49.38;;
45402;SDS011;47427;51.976;5.326;2023-04-23T05:32:13;53.95;;;48.08;;
45402;SDS011;47427;51.976;5.326;2023-04-23T05:35:34;53.90;;;47.65;;
45402;SDS011;47427;51.976;5.326;2023-04-23T05:38:57;51.75;;;46.45;;
45402;SDS011;47427;51.976;5.326;2023-04-23T05:42:19;50.75;;;45.58;;
45402;SDS011;47427;51.976;5.326;2023-04-23T05:46:00;50.30;;;45.10;;
45402;SDS011;47427;51.976;5.326;2023-04-23T05:49:24;47.80;;;42.88;;
45402;SDS011;47427;51.976;5.326;2023-04-23T05:52:46;48.40;;;43.45;;
45402;SDS011;47427;51.976;5.326;2023-04-23T05:56:09;50.67;;;45.28;;
45402;SDS011;47427;51.976;5.326;2023-04-23T05:59:30;48.40;;;43.50;;
45402;SDS011;47427;51.976;5.326;2023-04-23T06:02:54;47.72;;;42.80;;
45402;SDS011;47427;51.976;5.326;2023-04-23T06:06:17;47.90;;;42.92;;
45402;SDS011;47427;51.976;5.326;2023-04-23T06:09:38;44.67;;;40.38;;
45402;SDS011;47427;51.976;5.326;2023-04-23T06:13:01;44.83;;;40.63;;
45402;SDS011;47427;51.976;5.326;2023-04-23T06:16:24;47.08;;;42.78;;
45402;SDS011;47427;51.976;5.326;2023-04-23T06:19:45;44.03;;;39.72;;
45402;SDS011;47427;51.976;5.326;2023-04-23T06:23:08;43.88;;;39.70;;
45402;SDS011;47427;51.976;5.326;2023-04-23T06:26:33;40.38;;;36.58;;
45402;SDS011;47427;51.976;5.326;2023-04-23T06:30:04;41.38;;;37.67;;
45402;SDS011;47427;51.976;5.326;2023-04-23T06:33:30;41.47;;;37.63;;
45402;SDS011;47427;51.976;5.326;2023-04-23T06:36:51;39.88;;;36.45;;
45402;SDS011;47427;51.976;5.326;2023-04-23T06:40:15;40.00;;;36.20;;
45402;SDS011;47427;51.976;5.326;2023-04-23T06:43:37;38.53;;;34.72;;
45402;SDS011;47427;51.976;5.326;2023-04-23T06:47:18;37.35;;;33.95;;
45402;SDS011;47427;51.976;5.326;2023-04-23T06:50:40;38.92;;;35.42;;
45402;SDS011;47427;51.976;5.326;2023-04-23T06:54:01;36.30;;;33.15;;
45402;SDS011;47427;51.976;5.326;2023-04-23T06:57:24;36.47;;;33.47;;
45402;SDS011;47427;51.976;5.326;2023-04-23T07:00:47;34.90;;;32.03;;
45402;SDS011;47427;51.976;5.326;2023-04-23T07:04:09;32.28;;;29.77;;
45402;SDS011;47427;51.976;5.326;2023-04-23T07:07:30;33.50;;;30.52;;
45402;SDS011;47427;51.976;5.326;2023-04-23T07:10:53;33.45;;;30.30;;
45402;SDS011;47427;51.976;5.326;2023-04-23T07:14:16;30.58;;;28.17;;
45402;SDS011;47427;51.976;5.326;2023-04-23T07:17:39;32.22;;;29.70;;
45402;SDS011;47427;51.976;5.326;2023-04-23T07:21:01;31.05;;;28.40;;
45402;SDS011;47427;51.976;5.326;2023-04-23T07:24:23;30.55;;;28.20;;
45402;SDS011;47427;51.976;5.326;2023-04-23T07:27:47;29.75;;;27.38;;
45402;SDS011;47427;51.976;5.326;2023-04-23T07:31:08;29.33;;;27.00;;
45402;SDS011;47427;51.976;5.326;2023-04-23T07:34:31;30.48;;;27.83;;
45402;SDS011;47427;51.976;5.326;2023-04-23T07:37:53;28.50;;;25.88;;
45402;SDS011;47427;51.976;5.326;2023-04-23T07:41:17;29.13;;;26.60;;
45402;SDS011;47427;51.976;5.326;2023-04-23T07:44:39;27.20;;;25.20;;
45402;SDS011;47427;51.976;5.326;2023-04-23T07:48:01;28.13;;;26.02;;
45402;SDS011;47427;51.976;5.326;2023-04-23T07:51:24;27.52;;;24.83;;
45402;SDS011;47427;51.976;5.326;2023-04-23T07:54:47;26.42;;;24.23;;
45402;SDS011;47427;51.976;5.326;2023-04-23T07:58:09;26.20;;;24.10;;
45402;SDS011;47427;51.976;5.326;2023-04-23T08:01:32;26.20;;;23.85;;
45402;SDS011;47427;51.976;5.326;2023-04-23T08:04:54;25.50;;;23.58;;
45402;SDS011;47427;51.976;5.326;2023-04-23T08:08:16;24.25;;;22.45;;
45402;SDS011;47427;51.976;5.326;2023-04-23T08:11:39;23.95;;;22.02;;
45402;SDS011;47427;51.976;5.326;2023-04-23T08:15:01;24.90;;;23.00;;
45402;SDS011;47427;51.976;5.326;2023-04-23T08:18:32;24.05;;;21.90;;
45402;SDS011;47427;51.976;5.326;2023-04-23T08:21:56;23.25;;;21.42;;
45402;SDS011;47427;51.976;5.326;2023-04-23T08:25:18;25.90;;;23.15;;
45402;SDS011;47427;51.976;5.326;2023-04-23T08:29:00;24.23;;;22.23;;
45402;SDS011;47427;51.976;5.326;2023-04-23T08:32:23;23.70;;;21.75;;
45402;SDS011;47427;51.976;5.326;2023-04-23T08:35:46;25.23;;;23.02;;
45402;SDS011;47427;51.976;5.326;2023-04-23T08:39:08;24.67;;;22.50;;
45402;SDS011;47427;51.976;5.326;2023-04-23T08:46:06;23.33;;;21.50;;
45402;SDS011;47427;51.976;5.326;2023-04-23T08:49:33;23.73;;;21.80;;
45402;SDS011;47427;51.976;5.326;2023-04-23T08:52:57;23.83;;;21.52;;
45402;SDS011;47427;51.976;5.326;2023-04-23T08:56:20;23.15;;;21.27;;
45402;SDS011;47427;51.976;5.326;2023-04-23T08:59:44;22.77;;;20.73;;
45402;SDS011;47427;51.976;5.326;2023-04-23T09:03:07;23.02;;;21.13;;
45402;SDS011;47427;51.976;5.326;2023-04-23T09:06:29;23.50;;;21.20;;
45402;SDS011;47427;51.976;5.326;2023-04-23T09:09:53;22.33;;;20.33;;
45402;SDS011;47427;51.976;5.326;2023-04-23T09:13:16;22.20;;;20.20;;
45402;SDS011;47427;51.976;5.326;2023-04-23T09:16:37;22.35;;;20.35;;
45402;SDS011;47427;51.976;5.326;2023-04-23T09:20:03;21.60;;;19.90;;
45402;SDS011;47427;51.976;5.326;2023-04-23T09:23:27;22.50;;;20.42;;
45402;SDS011;47427;51.976;5.326;2023-04-23T09:26:49;22.10;;;20.13;;
45402;SDS011;47427;51.976;5.326;2023-04-23T09:30:13;22.30;;;20.13;;
45402;SDS011;47427;51.976;5.326;2023-04-23T09:33:39;23.02;;;20.83;;
45402;SDS011;47427;51.976;5.326;2023-04-23T09:37:01;22.90;;;20.80;;
45402;SDS011;47427;51.976;5.326;2023-04-23T09:40:26;22.13;;;19.65;;
45402;SDS011;47427;51.976;5.326;2023-04-23T09:43:51;21.80;;;19.88;;
45402;SDS011;47427;51.976;5.326;2023-04-23T09:47:15;24.35;;;21.25;;
45402;SDS011;47427;51.976;5.326;2023-04-23T09:50:38;22.73;;;20.67;;
45402;SDS011;47427;51.976;5.326;2023-04-23T09:54:00;26.63;;;21.17;;
45402;SDS011;47427;51.976;5.326;2023-04-23T09:57:24;24.35;;;20.10;;
45402;SDS011;47427;51.976;5.326;2023-04-23T10:00:47;21.63;;;19.52;;
45402;SDS011;47427;51.976;5.326;2023-04-23T10:04:10;20.88;;;18.83;;
45402;SDS011;47427;51.976;5.326;2023-04-23T10:07:38;22.08;;;20.02;;
45402;SDS011;47427;51.976;5.326;2023-04-23T10:11:20;21.27;;;19.50;;
45402;SDS011;47427;51.976;5.326;2023-04-23T10:14:47;20.05;;;18.45;;
45402;SDS011;47427;51.976;5.326;2023-04-23T10:18:14;21.20;;;19.40;;
45402;SDS011;47427;51.976;5.326;2023-04-23T10:21:36;20.60;;;18.80;;
45402;SDS011;47427;51.976;5.326;2023-04-23T10:25:03;19.70;;;18.02;;
45402;SDS011;47427;51.976;5.326;2023-04-23T10:28:30;18.42;;;16.92;;
45402;SDS011;47427;51.976;5.326;2023-04-23T10:31:55;20.30;;;17.30;;
45402;SDS011;47427;51.976;5.326;2023-04-23T10:35:20;19.30;;;17.60;;
45402;SDS011;47427;51.976;5.326;2023-04-23T10:38:42;22.60;;;19.05;;
45402;SDS011;47427;51.976;5.326;2023-04-23T10:42:07;20.88;;;18.98;;
45402;SDS011;47427;51.976;5.326;2023-04-23T10:45:30;21.70;;;19.35;;
45402;SDS011;47427;51.976;5.326;2023-04-23T10:49:05;21.13;;;19.17;;
45402;SDS011;47427;51.976;5.326;2023-04-23T10:52:28;20.88;;;19.13;;
45402;SDS011;47427;51.976;5.326;2023-04-23T10:56:05;20.20;;;18.25;;
45402;SDS011;47427;51.976;5.326;2023-04-23T10:59:30;19.27;;;17.83;;
45402;SDS011;47427;51.976;5.326;2023-04-23T11:02:54;18.70;;;16.88;;
45402;SDS011;47427;51.976;5.326;2023-04-23T11:10:11;20.65;;;18.60;;
45402;SDS011;47427;51.976;5.326;2023-04-23T11:13:35;18.25;;;16.92;;
45402;SDS011;47427;51.976;5.326;2023-04-23T11:17:15;19.55;;;18.05;;
45402;SDS011;47427;51.976;5.326;2023-04-23T11:20:58;18.17;;;16.70;;
45402;SDS011;47427;51.976;5.326;2023-04-23T11:24:23;20.33;;;18.40;;
45402;SDS011;47427;51.976;5.326;2023-04-23T11:27:50;20.33;;;18.67;;
45402;SDS011;47427;51.976;5.326;2023-04-23T11:31:15;19.23;;;17.80;;
45402;SDS011;47427;51.976;5.326;2023-04-23T11:34:38;20.17;;;18.35;;
45402;SDS011;47427;51.976;5.326;2023-04-23T11:38:06;19.27;;;17.73;;
45402;SDS011;47427;51.976;5.326;2023-04-23T11:41:29;18.63;;;17.20;;
45402;SDS011;47427;51.976;5.326;2023-04-23T11:44:52;18.15;;;16.75;;
45402;SDS011;47427;51.976;5.326;2023-04-23T11:48:15;18.13;;;16.75;;
45402;SDS011;47427;51.976;5.326;2023-04-23T11:51:41;19.48;;;17.80;;
45402;SDS011;47427;51.976;5.326;2023-04-23T11:55:07;18.10;;;16.77;;
45402;SDS011;47427;51.976;5.326;2023-04-23T11:58:30;18.73;;;17.05;;
45402;SDS011;47427;51.976;5.326;2023-04-23T12:01:52;19.20;;;17.70;;
45402;SDS011;47427;51.976;5.326;2023-04-23T12:05:26;17.88;;;16.50;;
45402;SDS011;47427;51.976;5.326;2023-04-23T12:08:56;18.30;;;16.67;;
45402;SDS011;47427;51.976;5.326;2023-04-23T12:12:18;18.27;;;16.80;;
45402;SDS011;47427;51.976;5.326;2023-04-23T12:15:50;18.02;;;16.83;;
45402;SDS011;47427;51.976;5.326;2023-04-23T12:19:17;18.20;;;16.80;;
45402;SDS011;47427;51.976;5.326;2023-04-23T12:22:50;17.35;;;16.10;;
45402;SDS011;47427;51.976;5.326;2023-04-23T12:26:14;19.85;;;18.05;;
45402;SDS011;47427;51.976;5.326;2023-04-23T12:29:36;19.98;;;18.38;;
45402;SDS011;47427;51.976;5.326;2023-04-23T12:33:01;19.15;;;17.50;;
45402;SDS011;47427;51.976;5.326;2023-04-23T12:36:27;20.52;;;19.13;;
45402;SDS011;47427;51.976;5.326;2023-04-23T12:39:52;19.02;;;17.20;;
45402;SDS011;47427;51.976;5.326;2023-04-23T12:43:17;19.67;;;18.00;;
45402;SDS011;47427;51.976;5.326;2023-04-23T12:46:38;18.02;;;16.73;;
45402;SDS011;47427;51.976;5.326;2023-04-23T12:50:01;18.08;;;16.67;;
45402;SDS011;47427;51.976;5.326;2023-04-23T12:53:26;19.00;;;17.40;;
45402;SDS011;47427;51.976;5.326;2023-04-23T12:56:47;18.17;;;16.27;;
45402;SDS011;47427;51.976;5.326;2023-04-23T13:00:10;17.58;;;16.20;;
45402;SDS011;47427;51.976;5.326;2023-04-23T13:03:33;18.60;;;17.10;;
45402;SDS011;47427;51.976;5.326;2023-04-23T13:06:55;17.10;;;15.90;;
45402;SDS011;47427;51.976;5.326;2023-04-23T13:10:18;17.55;;;16.30;;
45402;SDS011;47427;51.976;5.326;2023-04-23T13:13:40;18.40;;;17.10;;
45402;SDS011;47427;51.976;5.326;2023-04-23T13:17:03;17.67;;;16.25;;
45402;SDS011;47427;51.976;5.326;2023-04-23T13:20:25;17.95;;;16.35;;
45402;SDS011;47427;51.976;5.326;2023-04-23T13:23:47;17.23;;;15.95;;
45402;SDS011;47427;51.976;5.326;2023-04-23T13:27:11;16.85;;;15.68;;
45402;SDS011;47427;51.976;5.326;2023-04-23T13:30:32;16.45;;;15.35;;
45402;SDS011;47427;51.976;5.326;2023-04-23T13:33:55;16.83;;;15.73;;
45402;SDS011;47427;51.976;5.326;2023-04-23T13:37:38;18.08;;;16.60;;
45402;SDS011;47427;51.976;5.326;2023-04-23T13:41:01;18.13;;;16.63;;
45402;SDS011;47427;51.976;5.326;2023-04-23T13:44:23;19.00;;;17.40;;
45402;SDS011;47427;51.976;5.326;2023-04-23T13:47:45;18.80;;;17.58;;
45402;SDS011;47427;51.976;5.326;2023-04-23T13:51:08;17.08;;;15.80;;
45402;SDS011;47427;51.976;5.326;2023-04-23T13:54:31;17.30;;;15.55;;
45402;SDS011;47427;51.976;5.326;2023-04-23T13:57:52;16.50;;;15.20;;
45402;SDS011;47427;51.976;5.326;2023-04-23T14:01:18;16.85;;;15.73;;
45402;SDS011;47427;51.976;5.326;2023-04-23T14:04:41;17.85;;;16.65;;
45402;SDS011;47427;51.976;5.326;2023-04-23T14:08:02;17.20;;;15.90;;
45402;SDS011;47427;51.976;5.326;2023-04-23T14:11:25;17.33;;;15.75;;
45402;SDS011;47427;51.976;5.326;2023-04-23T14:14:47;16.88;;;15.68;;
45402;SDS011;47427;51.976;5.326;2023-04-23T14:18:10;16.75;;;15.52;;
45402;SDS011;47427;51.976;5.326;2023-04-23T14:21:33;16.95;;;15.20;;
45402;SDS011;47427;51.976;5.326;2023-04-23T14:24:56;16.83;;;15.63;;
45402;SDS011;47427;51.976;5.326;2023-04-23T14:28:27;18.13;;;16.83;;
45402;SDS011;47427;51.976;5.326;2023-04-23T14:31:54;17.48;;;16.38;;
45402;SDS011;47427;51.976;5.326;2023-04-23T14:35:16;19.13;;;17.73;;
45402;SDS011;47427;51.976;5.326;2023-04-23T14:38:39;21.75;;;20.00;;
45402;SDS011;47427;51.976;5.326;2023-04-23T14:42:02;25.27;;;23.25;;
45402;SDS011;47427;51.976;5.326;2023-04-23T14:45:23;27.23;;;24.60;;
45402;SDS011;47427;51.976;5.326;2023-04-23T14:48:46;58.97;;;53.63;;
45402;SDS011;47427;51.976;5.326;2023-04-23T14:52:08;62.20;;;57.17;;
45402;SDS011;47427;51.976;5.326;2023-04-23T14:55:30;21.63;;;18.55;;
45402;SDS011;47427;51.976;5.326;2023-04-23T14:58:53;19.92;;;18.33;;
45402;SDS011;47427;51.976;5.326;2023-04-23T15:02:15;21.23;;;19.50;;
45402;SDS011;47427;51.976;5.326;2023-04-23T15:05:38;42.13;;;39.03;;
45402;SDS011;47427;51.976;5.326;2023-04-23T15:09:21;43.85;;;40.30;;
45402;SDS011;47427;51.976;5.326;2023-04-23T15:16:28;40.08;;;36.90;;
45402;SDS011;47427;51.976;5.326;2023-04-23T15:19:52;43.75;;;40.35;;
45402;SDS011;47427;51.976;5.326;2023-04-23T15:23:17;41.85;;;38.60;;
45402;SDS011;47427;51.976;5.326;2023-04-23T15:26:40;43.70;;;40.38;;
45402;SDS011;47427;51.976;5.326;2023-04-23T15:30:04;51.13;;;47.53;;
45402;SDS011;47427;51.976;5.326;2023-04-23T15:33:29;54.40;;;51.13;;
45402;SDS011;47427;51.976;5.326;2023-04-23T15:36:50;46.47;;;42.63;;
45402;SDS011;47427;51.976;5.326;2023-04-23T15:40:13;40.60;;;37.90;;
45402;SDS011;47427;51.976;5.326;2023-04-23T15:43:34;40.33;;;37.45;;
45402;SDS011;47427;51.976;5.326;2023-04-23T15:46:57;37.85;;;35.40;;
45402;SDS011;47427;51.976;5.326;2023-04-23T15:50:22;39.00;;;35.88;;
45402;SDS011;47427;51.976;5.326;2023-04-23T15:53:46;37.08;;;34.08;;
45402;SDS011;47427;51.976;5.326;2023-04-23T15:57:09;36.17;;;33.75;;
45402;SDS011;47427;51.976;5.326;2023-04-23T16:00:32;39.53;;;36.72;;
45402;SDS011;47427;51.976;5.326;2023-04-23T16:03:53;38.92;;;36.20;;
45402;SDS011;47427;51.976;5.326;2023-04-23T16:07:36;36.08;;;33.67;;
45402;SDS011;47427;51.976;5.326;2023-04-23T16:10:58;37.38;;;34.58;;
45402;SDS011;47427;51.976;5.326;2023-04-23T16:14:21;33.92;;;31.40;;
45402;SDS011;47427;51.976;5.326;2023-04-23T16:21:45;32.70;;;30.40;;
45402;SDS011;47427;51.976;5.326;2023-04-23T16:25:08;31.70;;;29.30;;
45402;SDS011;47427;51.976;5.326;2023-04-23T16:28:29;30.77;;;28.77;;
45402;SDS011;47427;51.976;5.326;2023-04-23T16:32:11;32.53;;;29.92;;
45402;SDS011;47427;51.976;5.326;2023-04-23T16:35:34;30.27;;;28.38;;
45402;SDS011;47427;51.976;5.326;2023-04-23T16:38:57;30.60;;;28.63;;
45402;SDS011;47427;51.976;5.326;2023-04-23T16:42:20;29.25;;;27.35;;
45402;SDS011;47427;51.976;5.326;2023-04-23T16:45:43;29.30;;;27.27;;
45402;SDS011;47427;51.976;5.326;2023-04-23T16:49:06;30.10;;;27.67;;
45402;SDS011;47427;51.976;5.326;2023-04-23T16:52:28;28.42;;;26.25;;
45402;SDS011;47427;51.976;5.326;2023-04-23T16:55:50;29.23;;;27.05;;
45402;SDS011;47427;51.976;5.326;2023-04-23T16:59:13;28.45;;;26.27;;
45402;SDS011;47427;51.976;5.326;2023-04-23T17:02:35;28.15;;;26.27;;
45402;SDS011;47427;51.976;5.326;2023-04-23T17:06:08;27.73;;;25.83;;
45402;SDS011;47427;51.976;5.326;2023-04-23T17:13:06;54.03;;;48.97;;
45402;SDS011;47427;51.976;5.326;2023-04-23T17:16:29;29.08;;;27.15;;
45402;SDS011;47427;51.976;5.326;2023-04-23T17:19:51;27.90;;;26.10;;
45402;SDS011;47427;51.976;5.326;2023-04-23T17:23:13;28.05;;;26.15;;
45402;SDS011;47427;51.976;5.326;2023-04-23T17:26:36;27.08;;;25.17;;
45402;SDS011;47427;51.976;5.326;2023-04-23T17:29:59;29.88;;;27.80;;
45402;SDS011;47427;51.976;5.326;2023-04-23T17:33:22;28.67;;;26.52;;
45402;SDS011;47427;51.976;5.326;2023-04-23T17:36:44;27.75;;;25.88;;
45402;SDS011;47427;51.976;5.326;2023-04-23T17:40:05;27.88;;;26.00;;
45402;SDS011;47427;51.976;5.326;2023-04-23T17:43:30;28.25;;;26.27;;
45402;SDS011;47427;51.976;5.326;2023-04-23T17:46:54;30.63;;;28.27;;
45402;SDS011;47427;51.976;5.326;2023-04-23T17:50:17;27.88;;;25.63;;
45402;SDS011;47427;51.976;5.326;2023-04-23T17:53:39;28.90;;;26.98;;
45402;SDS011;47427;51.976;5.326;2023-04-23T17:57:28;26.42;;;24.65;;
45402;SDS011;47427;51.976;5.326;2023-04-23T18:00:50;27.73;;;25.25;;
45402;SDS011;47427;51.976;5.326;2023-04-23T18:04:12;26.23;;;24.25;;
45402;SDS011;47427;51.976;5.326;2023-04-23T18:07:35;25.52;;;23.60;;
45402;SDS011;47427;51.976;5.326;2023-04-23T18:11:00;25.45;;;23.52;;
45402;SDS011;47427;51.976;5.326;2023-04-23T18:14:21;26.65;;;24.75;;
45402;SDS011;47427;51.976;5.326;2023-04-23T18:17:44;26.85;;;24.83;;
45402;SDS011;47427;51.976;5.326;2023-04-23T18:21:07;37.83;;;34.42;;
45402;SDS011;47427;51.976;5.326;2023-04-23T18:24:30;29.92;;;27.52;;
45402;SDS011;47427;51.976;5.326;2023-04-23T18:28:11;35.42;;;32.35;;
45402;SDS011;47427;51.976;5.326;2023-04-23T18:31:35;30.75;;;28.23;;
45402;SDS011;47427;51.976;5.326;2023-04-23T18:34:58;26.50;;;24.45;;
45402;SDS011;47427;51.976;5.326;2023-04-23T18:41:53;27.38;;;25.27;;
45402;SDS011;47427;51.976;5.326;2023-04-23T18:45:16;29.60;;;26.73;;
45402;SDS011;47427;51.976;5.326;2023-04-23T18:48:45;24.63;;;22.73;;
45402;SDS011;47427;51.976;5.326;2023-04-23T18:52:42;24.13;;;22.33;;
45402;SDS011;47427;51.976;5.326;2023-04-23T18:56:03;24.52;;;22.35;;
45402;SDS011;47427;51.976;5.326;2023-04-23T18:59:26;23.63;;;22.08;;
45402;SDS011;47427;51.976;5.326;2023-04-23T19:02:49;24.60;;;22.85;;
45402;SDS011;47427;51.976;5.326;2023-04-23T19:06:11;25.00;;;23.08;;
45402;SDS011;47427;51.976;5.326;2023-04-23T19:09:34;26.88;;;24.58;;
45402;SDS011;47427;51.976;5.326;2023-04-23T19:12:55;27.10;;;24.90;;
45402;SDS011;47427;51.976;5.326;2023-04-23T19:16:18;29.55;;;26.83;;
45402;SDS011;47427;51.976;5.326;2023-04-23T19:19:41;27.88;;;25.70;;
45402;SDS011;47427;51.976;5.326;2023-04-23T19:23:02;28.13;;;25.80;;
45402;SDS011;47427;51.976;5.326;2023-04-23T19:26:25;32.83;;;29.48;;
45402;SDS011;47427;51.976;5.326;2023-04-23T19:29:48;33.28;;;30.08;;
45402;SDS011;47427;51.976;5.326;2023-04-23T19:33:12;25.70;;;23.75;;
45402;SDS011;47427;51.976;5.326;2023-04-23T19:36:34;24.75;;;23.05;;
45402;SDS011;47427;51.976;5.326;2023-04-23T19:39:56;24.98;;;23.27;;
45402;SDS011;47427;51.976;5.326;2023-04-23T19:43:19;24.10;;;22.38;;
45402;SDS011;47427;51.976;5.326;2023-04-23T19:46:42;22.27;;;21.00;;
45402;SDS011;47427;51.976;5.326;2023-04-23T19:50:04;24.92;;;22.95;;
45402;SDS011;47427;51.976;5.326;2023-04-23T19:53:28;24.02;;;22.73;;
45402;SDS011;47427;51.976;5.326;2023-04-23T19:56:51;24.55;;;23.02;;
45402;SDS011;47427;51.976;5.326;2023-04-23T20:00:12;23.95;;;22.55;;
45402;SDS011;47427;51.976;5.326;2023-04-23T20:03:35;23.77;;;22.08;;
45402;SDS011;47427;51.976;5.326;2023-04-23T20:06:57;23.92;;;22.38;;
45402;SDS011;47427;51.976;5.326;2023-04-23T20:10:20;25.00;;;23.58;;
45402;SDS011;47427;51.976;5.326;2023-04-23T20:13:42;23.92;;;22.52;;